createdAt,value
2024-01-06T00:01:00.584Z,96366.38
2024-01-06T00:03:29.430Z,96370.69
2024-01-06T00:05:57.998Z,96371.66
2024-01-06T00:08:26.742Z,96367.19
2024-01-06T00:10:56.376Z,96361.75
2024-01-06T00:13:26.084Z,96370.50
2024-01-06T00:15:54.470Z,96372.31
2024-01-06T00:18:23.019Z,96360.91
2024-01-06T00:20:51.700Z,96365.22
2024-01-06T00:23:22.712Z,96371.31
2024-01-06T00:25:51.076Z,96367.72
2024-01-06T00:28:19.479Z,96362.44
2024-01-06T00:30:49.418Z,96365.06
2024-01-06T00:33:18.003Z,96367.72
2024-01-06T00:35:46.558Z,96370.34
2024-01-06T00:38:15.108Z,96366.72
2024-01-06T00:40:43.822Z,96364.41
2024-01-06T00:43:12.470Z,96369.50
2024-01-06T00:45:41.014Z,96375.78
2024-01-06T00:48:11.210Z,96369.84
2024-01-06T00:50:39.829Z,96369.00
2024-01-06T00:53:08.582Z,96378.91
2024-01-06T00:55:37.052Z,96383.03
2024-01-06T00:58:06.209Z,96385.84
2024-01-06T01:00:34.565Z,96375.28
2024-01-06T01:03:03.229Z,96384.19
2024-01-06T01:05:32.908Z,96376.28
2024-01-06T01:08:01.475Z,96386.84
2024-01-06T01:10:29.993Z,96383.38
2024-01-06T01:12:58.496Z,96392.75
2024-01-06T01:15:26.988Z,96387.47
2024-01-06T01:17:55.601Z,96389.31
2024-01-06T01:20:24.488Z,96386.69
2024-01-06T01:22:54.313Z,96382.19
2024-01-06T01:25:22.816Z,96377.91
2024-01-06T01:27:51.341Z,96371.97
2024-01-06T01:30:19.846Z,96375.59
2024-01-06T01:32:48.292Z,96371.97
2024-01-06T01:35:16.849Z,96365.88
2024-01-06T01:37:45.317Z,96375.59
2024-01-06T01:40:15.573Z,96377.41
2024-01-06T01:42:45.797Z,96368.69
2024-01-06T01:45:14.382Z,96381.88
2024-01-06T01:47:42.997Z,96372.97
2024-01-06T01:50:12.526Z,96369.34
2024-01-06T01:52:42.754Z,96371.00
2024-01-06T01:55:11.934Z,96367.38
2024-01-06T01:57:41.910Z,96363.09
2024-01-06T02:00:12.766Z,96363.88
2024-01-06T02:02:41.599Z,96360.44
2024-01-06T02:05:10.188Z,96361.09
2024-01-06T02:07:38.988Z,96363.72
2024-01-06T02:10:09.346Z,96368.03
2024-01-06T02:12:37.849Z,96362.75
2024-01-06T02:15:09.430Z,96364.41
2024-01-06T02:17:38.019Z,96364.41
2024-01-06T02:20:08.438Z,96361.91
2024-01-06T02:22:38.985Z,96359.94
2024-01-06T02:25:13.846Z,96359.94
2024-01-06T02:27:42.442Z,96365.06
2024-01-06T02:30:12.671Z,96354.69
2024-01-06T02:32:41.142Z,96358.13
2024-01-06T02:35:10.610Z,96366.03
2024-01-06T02:37:40.534Z,96359.13
2024-01-06T02:40:13.819Z,96358.28
2024-01-06T02:42:42.740Z,96362.75
2024-01-06T02:45:11.694Z,96355.81
2024-01-06T02:47:40.332Z,96358.44
2024-01-06T02:50:12.212Z,96366.38
2024-01-06T02:52:42.245Z,96364.41
2024-01-06T02:55:10.737Z,96355.66
2024-01-06T02:57:39.854Z,96356.47
2024-01-06T03:00:10.207Z,96360.75
2024-01-06T03:02:38.833Z,96361.75
2024-01-06T03:05:08.133Z,96366.88
2024-01-06T03:07:36.688Z,96362.44
2024-01-06T03:10:07.690Z,96367.72
2024-01-06T03:12:36.364Z,96369.34
2024-01-06T03:15:05.100Z,96362.28
2024-01-06T03:17:33.758Z,96366.72
2024-01-06T03:20:02.507Z,96372.81
2024-01-06T03:22:31.106Z,96363.06
2024-01-06T03:24:59.650Z,96363.91
2024-01-06T03:27:29.398Z,96363.75
2024-01-06T03:29:57.748Z,96363.75
2024-01-06T03:32:26.355Z,96363.91
2024-01-06T03:34:54.945Z,96369.84
2024-01-06T03:37:23.529Z,96369.03
2024-01-06T03:39:52.232Z,96365.53
2024-01-06T03:42:20.679Z,96366.38
2024-01-06T03:44:50.455Z,96373.31
2024-01-06T03:47:19.252Z,96365.38
2024-01-06T03:49:48.255Z,96362.75
2024-01-06T03:52:17.928Z,96359.94
2024-01-06T03:54:46.427Z,96363.41
2024-01-06T03:57:15.313Z,96368.69
2024-01-06T03:59:44.797Z,96375.63
2024-01-06T04:02:14.884Z,96375.78
2024-01-06T04:04:43.414Z,96373.97
2024-01-06T04:07:11.881Z,96373.31
2024-01-06T04:09:40.997Z,96369.03
2024-01-06T04:12:10.135Z,96376.09
2024-01-06T04:14:38.680Z,96373.47
2024-01-06T04:17:07.263Z,96371.66
2024-01-06T04:19:37.193Z,96380.41
2024-01-06T04:22:06.221Z,96379.59
2024-01-06T04:24:39.008Z,96384.03
2024-01-06T04:27:07.626Z,96391.78
2024-01-06T04:29:36.134Z,96383.88
2024-01-06T04:32:05.214Z,96393.47
2024-01-06T04:34:33.659Z,96397.06
2024-01-06T04:37:03.388Z,96390.81
2024-01-06T04:39:34.227Z,96392.47
2024-01-06T04:42:06.428Z,96399.53
2024-01-06T04:44:34.850Z,96406.50
2024-01-06T04:47:03.197Z,96393.47
2024-01-06T04:49:31.592Z,96403.03
2024-01-06T04:52:00.036Z,96399.53
2024-01-06T04:54:30.125Z,96402.19
2024-01-06T04:56:58.602Z,96406.50
2024-01-06T04:59:27.082Z,96417.06
2024-01-06T05:01:56.684Z,96409.94
2024-01-06T05:04:25.038Z,96415.22
2024-01-06T05:06:54.537Z,96412.56
2024-01-06T05:09:23.154Z,96417.84
2024-01-06T05:11:52.933Z,96426.63
2024-01-06T05:14:21.378Z,96423.13
2024-01-06T05:16:49.828Z,96425.78
2024-01-06T05:19:21.735Z,96427.41
2024-01-06T05:21:51.142Z,96432.69
2024-01-06T05:24:21.122Z,96434.53
2024-01-06T05:26:49.659Z,96439.66
2024-01-06T05:29:19.513Z,96440.63
2024-01-06T05:31:50.098Z,96434.38
2024-01-06T05:34:18.689Z,96435.19
2024-01-06T05:36:47.756Z,96443.09
2024-01-06T05:39:19.120Z,96446.59
2024-01-06T05:41:47.429Z,96448.22
2024-01-06T05:44:15.802Z,96445.41
2024-01-06T05:46:45.901Z,96457.66
2024-01-06T05:49:14.533Z,96448.91
2024-01-06T05:51:49.019Z,96451.69
2024-01-06T05:54:17.669Z,96457.81
2024-01-06T05:56:46.212Z,96461.25
2024-01-06T05:59:15.553Z,96471.03
2024-01-06T06:01:45.543Z,96471.03
2024-01-06T06:04:14.352Z,96470.03
2024-01-06T06:06:43.001Z,96470.03
2024-01-06T06:09:11.584Z,96476.94
2024-01-06T06:11:39.982Z,96472.50
2024-01-06T06:14:08.371Z,96483.91
2024-01-06T06:16:36.797Z,96486.53
2024-01-06T06:19:07.240Z,96489.97
2024-01-06T06:21:35.972Z,96500.53
2024-01-06T06:24:05.076Z,96491.16
2024-01-06T06:26:33.770Z,96501.72
2024-01-06T06:29:02.587Z,96505.34
2024-01-06T06:31:31.212Z,96498.38
2024-01-06T06:34:00.094Z,96500.22
2024-01-06T06:36:30.452Z,96507.31
2024-01-06T06:38:59.764Z,96509.13
2024-01-06T06:41:28.181Z,96524.00
2024-01-06T06:43:57.012Z,96515.22
2024-01-06T06:46:25.714Z,96530.06
2024-01-06T06:48:54.286Z,96537.19
2024-01-06T06:51:26.194Z,96536.19
2024-01-06T06:53:56.004Z,96543.97
2024-01-06T06:56:24.817Z,96542.31
2024-01-06T06:58:53.678Z,96545.59
2024-01-06T07:01:22.600Z,96547.28
2024-01-06T07:03:51.109Z,96554.53
2024-01-06T07:06:19.621Z,96554.53
2024-01-06T07:08:48.055Z,96552.88
2024-01-06T07:11:19.644Z,96562.59
2024-01-06T07:13:48.156Z,96565.25
2024-01-06T07:16:19.389Z,96565.25
2024-01-06T07:18:51.164Z,96567.88
2024-01-06T07:21:19.723Z,96567.88
2024-01-06T07:23:48.606Z,96561.59
2024-01-06T07:26:19.024Z,96563.44
2024-01-06T07:28:47.922Z,96569.53
2024-01-06T07:31:18.640Z,96567.88
2024-01-06T07:33:47.509Z,96580.25
2024-01-06T07:36:17.371Z,96566.09
2024-01-06T07:38:47.066Z,96576.66
2024-01-06T07:41:15.514Z,96565.25
2024-01-06T07:43:45.355Z,96561.59
2024-01-06T07:46:14.206Z,96554.53
2024-01-06T07:48:43.222Z,96555.34
2024-01-06T07:51:10.655Z,96566.72
2024-01-06T07:53:39.209Z,96572.84
2024-01-06T07:56:08.379Z,96573.00
2024-01-06T07:58:36.787Z,96575.31
2024-01-06T08:01:06.827Z,96588.53
2024-01-06T08:03:35.567Z,96584.09
2024-01-06T08:06:04.126Z,96586.72
2024-01-06T08:08:32.598Z,96593.81
2024-01-06T08:11:01.013Z,96592.16
2024-01-06T08:13:29.549Z,96591.16
2024-01-06T08:15:57.934Z,96596.44
2024-01-06T08:18:29.156Z,96605.38
2024-01-06T08:20:57.746Z,96603.53
2024-01-06T08:23:27.137Z,96607.84
2024-01-06T08:25:58.762Z,96604.38
2024-01-06T08:28:27.140Z,96601.91
2024-01-06T08:30:55.977Z,96607.19
2024-01-06T08:33:24.582Z,96610.81
2024-01-06T08:35:54.788Z,96620.38
2024-01-06T08:38:23.686Z,96624.00
2024-01-06T08:40:52.933Z,96625.66
2024-01-06T08:43:21.469Z,96634.41
2024-01-06T08:45:51.936Z,96635.22
2024-01-06T08:48:20.816Z,96641.34
2024-01-06T08:50:49.272Z,96647.47
2024-01-06T08:53:19.087Z,96644.00
2024-01-06T08:55:47.885Z,96645.63
2024-01-06T08:58:16.197Z,96657.88
2024-01-06T09:00:44.917Z,96643.00
2024-01-06T09:03:13.874Z,96640.50
2024-01-06T09:05:42.656Z,96650.09
2024-01-06T09:08:11.259Z,96644.16
2024-01-06T09:10:41.114Z,96640.81
2024-01-06T09:13:09.578Z,96648.44
2024-01-06T09:15:37.918Z,96644.97
2024-01-06T09:18:07.471Z,96644.00
2024-01-06T09:20:36.116Z,96644.00
2024-01-06T09:23:04.692Z,96648.28
2024-01-06T09:25:35.892Z,96651.75
2024-01-06T09:28:06.656Z,96649.13
2024-01-06T09:30:35.352Z,96647.31
2024-01-06T09:33:06.544Z,96662.84
2024-01-06T09:35:35.018Z,96662.69
2024-01-06T09:38:03.438Z,96672.25
2024-01-06T09:40:34.589Z,96674.72
2024-01-06T09:43:03.522Z,96666.97
2024-01-06T09:45:33.302Z,96675.41
2024-01-06T09:48:07.548Z,96668.47
2024-01-06T09:50:36.600Z,96665.00
2024-01-06T09:53:08.150Z,96664.84
2024-01-06T09:55:38.064Z,96664.84
2024-01-06T09:58:07.972Z,96659.41
2024-01-06T10:00:52.202Z,96662.22
2024-01-06T10:03:20.694Z,96661.88
2024-01-06T10:05:49.546Z,96653.97
2024-01-06T10:08:20.801Z,96653.97
2024-01-06T10:10:49.454Z,96658.41
2024-01-06T10:13:20.243Z,96659.25
2024-01-06T10:15:50.095Z,96661.72
2024-01-06T10:18:18.715Z,96660.72
2024-01-06T10:20:47.825Z,96665.84
2024-01-06T10:23:16.615Z,96657.94
2024-01-06T10:25:45.144Z,96662.38
2024-01-06T10:28:14.996Z,96651.00
2024-01-06T10:30:44.735Z,96654.63
2024-01-06T10:33:15.642Z,96656.28
2024-01-06T10:35:45.523Z,96654.47
2024-01-06T10:38:14.504Z,96656.28
2024-01-06T10:40:42.846Z,96660.41
2024-01-06T10:43:12.702Z,96664.72
2024-01-06T10:45:41.233Z,96664.72
2024-01-06T10:48:10.687Z,96657.63
2024-01-06T10:50:40.614Z,96663.75
2024-01-06T10:53:09.283Z,96664.53
2024-01-06T10:55:39.287Z,96659.59
2024-01-06T10:58:08.931Z,96660.25
2024-01-06T11:00:36.531Z,96656.78
2024-01-06T11:03:06.744Z,96658.63
2024-01-06T11:05:36.105Z,96648.03
2024-01-06T11:08:07.050Z,96651.66
2024-01-06T11:10:37.707Z,96653.34
2024-01-06T11:13:12.347Z,96651.81
2024-01-06T11:15:46.091Z,96648.38
2024-01-06T11:18:36.960Z,96650.16
2024-01-06T11:21:20.378Z,96647.69
2024-01-06T11:24:14.252Z,96643.41
2024-01-06T11:26:45.152Z,96637.28
2024-01-06T11:29:14.111Z,96632.84
2024-01-06T11:31:42.811Z,96633.97
2024-01-06T11:34:20.282Z,96639.25
2024-01-06T11:36:51.091Z,96641.72
2024-01-06T11:39:40.683Z,96646.19
2024-01-06T11:42:12.447Z,96642.03
2024-01-06T11:44:42.353Z,96641.06
2024-01-06T11:47:14.095Z,96632.47
2024-01-06T11:49:47.425Z,96633.31
2024-01-06T11:52:17.468Z,96635.13
2024-01-06T11:54:48.560Z,96635.94
2024-01-06T11:57:17.286Z,96637.91
2024-01-06T11:59:45.776Z,96644.03
2024-01-06T12:02:15.524Z,96638.75
2024-01-06T12:04:44.483Z,96632.78
2024-01-06T12:07:15.587Z,96628.34
2024-01-06T12:09:44.288Z,96637.06
2024-01-06T12:12:16.179Z,96639.72
2024-01-06T12:14:44.892Z,96636.28
2024-01-06T12:17:14.461Z,96627.66
2024-01-06T12:19:44.461Z,96631.16
2024-01-06T12:22:15.615Z,96628.81
2024-01-06T12:24:44.996Z,96631.16
2024-01-06T12:27:14.971Z,96625.19
2024-01-06T12:29:43.770Z,96622.22
2024-01-06T12:32:14.672Z,96618.91
2024-01-06T12:34:43.674Z,96625.88
2024-01-06T12:37:12.334Z,96624.19
2024-01-06T12:39:40.889Z,96621.53
2024-01-06T12:42:09.992Z,96622.38
2024-01-06T12:44:41.353Z,96618.25
2024-01-06T12:47:09.779Z,96613.78
2024-01-06T12:49:39.640Z,96611.13
2024-01-06T12:52:08.482Z,96613.78
2024-01-06T12:54:36.975Z,96612.97
2024-01-06T12:57:06.011Z,96620.06
2024-01-06T12:59:34.678Z,96624.19
2024-01-06T13:02:04.919Z,96610.34
2024-01-06T13:04:33.417Z,96619.75
2024-01-06T13:07:03.431Z,96616.59
2024-01-06T13:09:32.390Z,96619.91
2024-01-06T13:12:02.279Z,96617.94
2024-01-06T13:14:31.373Z,96626.50
2024-01-06T13:16:59.973Z,96623.22
2024-01-06T13:19:30.378Z,96624.34
2024-01-06T13:21:59.496Z,96624.19
2024-01-06T13:24:28.573Z,96629.47
2024-01-06T13:26:56.963Z,96627.66
2024-01-06T13:29:25.436Z,96633.78
2024-01-06T13:31:54.266Z,96631.94
2024-01-06T13:34:23.147Z,96634.59
2024-01-06T13:36:55.871Z,96632.28
2024-01-06T13:39:25.474Z,96638.72
2024-01-06T13:41:54.193Z,96632.91
2024-01-06T13:44:23.843Z,96638.03
2024-01-06T13:46:52.855Z,96634.06
2024-01-06T13:49:21.492Z,96634.75
2024-01-06T13:51:52.186Z,96634.06
2024-01-06T13:54:20.941Z,96634.91
2024-01-06T13:56:49.359Z,96631.41
2024-01-06T13:59:18.157Z,96650.06
2024-01-06T14:01:47.061Z,96643.13
2024-01-06T14:04:15.715Z,96641.66
2024-01-06T14:06:44.349Z,96640.28
2024-01-06T14:09:14.504Z,96642.28
2024-01-06T14:11:42.925Z,96648.03
2024-01-06T14:14:11.320Z,96641.06
2024-01-06T14:16:39.835Z,96643.88
2024-01-06T14:19:08.547Z,96646.81
2024-01-06T14:21:37.049Z,96640.22
2024-01-06T14:24:06.674Z,96650.38
2024-01-06T14:26:37.104Z,96650.25
2024-01-06T14:29:07.575Z,96669.53
2024-01-06T14:31:36.637Z,96654.88
2024-01-06T14:34:05.786Z,96655.97
2024-01-06T14:36:34.312Z,96664.06
2024-01-06T14:39:05.147Z,96660.22
2024-01-06T14:41:35.134Z,96657.59
2024-01-06T14:44:03.518Z,96661.22
2024-01-06T14:46:33.194Z,96664.81
2024-01-06T14:49:02.015Z,96664.97
2024-01-06T14:51:30.571Z,96662.19
2024-01-06T14:53:59.021Z,96666.28
2024-01-06T14:56:27.739Z,96670.56
2024-01-06T14:58:57.770Z,96666.44
2024-01-06T15:01:26.463Z,96675.03
2024-01-06T15:03:54.955Z,96669.06
2024-01-06T15:06:23.633Z,96671.72
2024-01-06T15:08:52.637Z,96673.53
2024-01-06T15:11:21.080Z,96677.81
2024-01-06T15:13:49.586Z,96685.06
2024-01-06T15:16:19.700Z,96673.84
2024-01-06T15:18:48.508Z,96682.41
2024-01-06T15:21:21.677Z,96682.56
2024-01-06T15:23:50.257Z,96690.34
2024-01-06T15:26:24.631Z,96695.75
2024-01-06T15:28:53.424Z,96701.03
2024-01-06T15:31:23.491Z,96690.50
2024-01-06T15:33:52.261Z,96692.63
2024-01-06T15:36:20.779Z,96686.50
2024-01-06T15:38:49.959Z,96689.31
2024-01-06T15:41:18.465Z,96694.44
2024-01-06T15:43:47.047Z,96690.94
2024-01-06T15:46:17.027Z,96689.47
2024-01-06T15:48:47.041Z,96689.47
2024-01-06T15:51:15.580Z,96698.22
2024-01-06T15:53:44.082Z,96699.69
2024-01-06T15:56:12.525Z,96701.16
2024-01-06T15:58:41.262Z,96693.91
2024-01-06T16:01:09.706Z,96701.81
2024-01-06T16:03:38.447Z,96698.22
2024-01-06T16:06:09.397Z,96694.72
2024-01-06T16:08:37.806Z,96691.94
2024-01-06T16:11:06.751Z,96686.66
2024-01-06T16:13:35.147Z,96696.22
2024-01-06T16:16:04.238Z,96694.44
2024-01-06T16:18:33.250Z,96697.91
2024-01-06T16:21:02.760Z,96695.13
2024-01-06T16:23:32.969Z,96697.75
2024-01-06T16:26:01.700Z,96698.56
2024-01-06T16:28:30.136Z,96697.91
2024-01-06T16:30:58.952Z,96703.03
2024-01-06T16:33:28.689Z,96703.03
2024-01-06T16:35:57.328Z,96712.75
2024-01-06T16:38:25.793Z,96711.09
2024-01-06T16:40:56.492Z,96715.53
2024-01-06T16:43:25.034Z,96710.41
2024-01-06T16:45:53.519Z,96715.53
2024-01-06T16:48:22.595Z,96717.19
2024-01-06T16:50:52.109Z,96719.16
2024-01-06T16:53:20.530Z,96724.44
2024-01-06T16:55:49.027Z,96722.75
2024-01-06T16:58:19.216Z,96723.59
2024-01-06T17:00:47.845Z,96728.03
2024-01-06T17:03:16.960Z,96731.38
2024-01-06T17:05:45.645Z,96724.44
2024-01-06T17:08:14.566Z,96728.88
2024-01-06T17:10:43.385Z,96731.50
2024-01-06T17:13:11.866Z,96730.69
2024-01-06T17:15:42.575Z,96733.47
2024-01-06T17:18:11.778Z,96731.97
2024-01-06T17:20:40.740Z,96728.34
2024-01-06T17:23:09.494Z,96733.75
2024-01-06T17:25:37.977Z,96729.78
2024-01-06T17:28:07.268Z,96736.84
2024-01-06T17:30:38.265Z,96738.84
2024-01-06T17:33:08.454Z,96736.81
2024-01-06T17:35:37.135Z,96739.59
2024-01-06T17:38:06.068Z,96745.69
2024-01-06T17:40:34.639Z,96742.38
2024-01-06T17:43:03.185Z,96734.78
2024-01-06T17:45:35.413Z,96742.16
2024-01-06T17:48:04.615Z,96737.03
2024-01-06T17:50:34.592Z,96736.34
2024-01-06T17:53:03.051Z,96741.09
2024-01-06T17:55:31.721Z,96743.88
2024-01-06T17:58:00.175Z,96746.66
2024-01-06T18:00:28.857Z,96740.84
2024-01-06T18:02:57.417Z,96741.69
2024-01-06T18:05:26.398Z,96746.44
2024-01-06T18:07:56.634Z,96748.09
2024-01-06T18:10:25.155Z,96739.22
2024-01-06T18:12:54.247Z,96741.31
2024-01-06T18:15:23.239Z,96751.03
2024-01-06T18:17:51.893Z,96751.03
2024-01-06T18:20:23.178Z,96747.84
2024-01-06T18:22:51.753Z,96750.66
2024-01-06T18:25:21.588Z,96752.59
2024-01-06T18:27:50.186Z,96750.94
2024-01-06T18:30:20.072Z,96754.56
2024-01-06T18:32:48.631Z,96751.09
2024-01-06T18:35:20.745Z,96753.88
2024-01-06T18:37:49.432Z,96758.31
2024-01-06T18:40:18.191Z,96756.50
2024-01-06T18:42:48.048Z,96761.22
2024-01-06T18:45:17.054Z,96763.69
2024-01-06T18:47:46.710Z,96760.53
2024-01-06T18:50:15.483Z,96763.19
2024-01-06T18:52:43.874Z,96768.16
2024-01-06T18:55:12.262Z,96757.63
2024-01-06T18:57:40.738Z,96761.22
2024-01-06T19:00:14.091Z,96762.50
2024-01-06T19:02:43.276Z,96754.59
2024-01-06T19:05:12.179Z,96753.75
2024-01-06T19:07:40.545Z,96752.78
2024-01-06T19:10:09.526Z,96755.41
2024-01-06T19:12:38.251Z,96751.78
2024-01-06T19:15:07.503Z,96753.75
2024-01-06T19:17:37.575Z,96745.97
2024-01-06T19:20:07.243Z,96751.09
2024-01-06T19:22:35.566Z,96751.94
2024-01-06T19:25:04.195Z,96750.97
2024-01-06T19:27:34.487Z,96750.16
2024-01-06T19:30:04.930Z,96737.78
2024-01-06T19:32:33.991Z,96739.47
2024-01-06T19:35:03.785Z,96744.88
2024-01-06T19:37:32.178Z,96743.75
2024-01-06T19:40:00.850Z,96742.25
2024-01-06T19:42:29.591Z,96748.19
2024-01-06T19:44:58.170Z,96747.22
2024-01-06T19:47:27.292Z,96738.47
2024-01-06T19:49:55.798Z,96734.03
2024-01-06T19:52:25.701Z,96736.81
2024-01-06T19:54:54.652Z,96731.69
2024-01-06T19:57:23.496Z,96743.88
2024-01-06T19:59:53.773Z,96731.84
2024-01-06T20:02:22.464Z,96739.47
2024-01-06T20:04:50.955Z,96747.81
2024-01-06T20:07:21.147Z,96740.84
2024-01-06T20:09:51.359Z,96739.22
2024-01-06T20:12:20.756Z,96740.19
2024-01-06T20:14:49.186Z,96742.84
2024-01-06T20:17:17.788Z,96739.22
2024-01-06T20:19:47.761Z,96739.22
2024-01-06T20:22:16.872Z,96744.47
2024-01-06T20:24:45.888Z,96740.34
2024-01-06T20:27:15.833Z,96745.63
2024-01-06T20:29:44.389Z,96736.72
2024-01-06T20:32:13.148Z,96741.16
2024-01-06T20:34:46.045Z,96738.53
2024-01-06T20:37:14.661Z,96733.94
2024-01-06T20:39:43.103Z,96739.22
2024-01-06T20:42:11.682Z,96729.81
2024-01-06T20:44:41.705Z,96723.69
2024-01-06T20:47:10.392Z,96733.25
2024-01-06T20:49:38.992Z,96727.03
2024-01-06T20:52:08.336Z,96727.97
2024-01-06T20:54:38.857Z,96723.69
2024-01-06T20:57:08.699Z,96723.84
2024-01-06T20:59:37.214Z,96720.22
2024-01-06T21:02:07.663Z,96717.88
2024-01-06T21:04:36.410Z,96721.66
2024-01-06T21:07:06.353Z,96726.91
2024-01-06T21:09:34.926Z,96719.84
2024-01-06T21:12:04.643Z,96718.19
2024-01-06T21:14:40.213Z,96715.38
2024-01-06T21:17:10.179Z,96716.22
2024-01-06T21:19:38.690Z,96712.91
2024-01-06T21:22:07.161Z,96711.81
2024-01-06T21:24:35.784Z,96710.13
2024-01-06T21:27:04.893Z,96710.97
2024-01-06T21:29:33.345Z,96713.59
2024-01-06T21:32:01.824Z,96715.25
2024-01-06T21:34:31.681Z,96711.66
2024-01-06T21:37:00.355Z,96704.69
2024-01-06T21:39:29.172Z,96716.09
2024-01-06T21:41:57.680Z,96709.97
2024-01-06T21:44:26.533Z,96712.59
2024-01-06T21:46:55.326Z,96717.72
2024-01-06T21:49:24.316Z,96714.13
2024-01-06T21:51:56.039Z,96711.34
2024-01-06T21:54:24.485Z,96716.63
2024-01-06T21:56:52.948Z,96717.59
2024-01-06T21:59:21.576Z,96718.28
2024-01-06T22:01:50.566Z,96710.53
2024-01-06T22:04:19.120Z,96717.44
2024-01-06T22:06:47.865Z,96722.72
2024-01-06T22:09:19.874Z,96723.53
2024-01-06T22:11:50.407Z,96715.78
2024-01-06T22:14:18.895Z,96720.22
2024-01-06T22:16:47.478Z,96719.13
2024-01-06T22:19:16.055Z,96715.78
2024-01-06T22:21:47.883Z,96717.59
2024-01-06T22:24:20.278Z,96715.78
2024-01-06T22:26:49.473Z,96717.72
2024-01-06T22:29:18.343Z,96714.44
2024-01-06T22:31:47.088Z,96712.59
2024-01-06T22:34:15.782Z,96713.44
2024-01-06T22:36:44.353Z,96709.97
2024-01-06T22:39:12.818Z,96714.13
2024-01-06T22:41:43.832Z,96714.13
2024-01-06T22:44:13.523Z,96718.41
2024-01-06T22:46:42.086Z,96715.94
2024-01-06T22:49:11.218Z,96714.28
2024-01-06T22:51:39.977Z,96712.47
2024-01-06T22:54:10.276Z,96715.25
2024-01-06T22:56:40.364Z,96711.94
2024-01-06T22:59:10.316Z,96709.31
2024-01-06T23:01:39.008Z,96710.81
2024-01-06T23:04:08.035Z,96710.81
2024-01-06T23:06:37.581Z,96703.91
2024-01-06T23:09:07.940Z,96710.97
2024-01-06T23:11:36.595Z,96717.06
2024-01-06T23:14:05.416Z,96714.44
2024-01-06T23:16:35.282Z,96719.84
2024-01-06T23:19:04.051Z,96719.00
2024-01-06T23:21:32.503Z,96720.66
2024-01-06T23:24:00.941Z,96726.63
2024-01-06T23:26:29.459Z,96725.13
2024-01-06T23:28:57.974Z,96722.50
2024-01-06T23:31:26.751Z,96730.53
2024-01-06T23:33:57.138Z,96729.00
2024-01-06T23:36:25.792Z,96726.38
2024-01-06T23:38:54.509Z,96726.38
2024-01-06T23:41:22.915Z,96724.72
2024-01-06T23:43:51.224Z,96731.63
2024-01-06T23:46:21.229Z,96728.06
2024-01-06T23:48:49.715Z,96728.84
2024-01-06T23:51:20.015Z,96728.84
2024-01-06T23:53:51.610Z,96735.81
2024-01-06T23:56:22.003Z,96731.50
2024-01-06T23:58:50.809Z,96735.81
